KGUS/GUS METAR and TAF weather

Enter ICAO airport designator
Station Type Date Time Source
KGUS METAR 2020/09/25 05:56 UTC NOAA

KGUS 250556Z AUTO 00000KT 10SM CLR 13/12 A2997 RMK AO2 SLP149 T01340121 10206 20122 58001 $


Station Type Date Time Source
KGUS Decoded METAR 2020/09/25 05:56 UTC NOAA

Grissom Air Force Base / Peru, IN, United States (KGUS) 40-39N 086-09W
Sep 25, 2020 - 01:56 AM EDT / 2020.09.25 0556 UTC
Wind: Calm:0
Visibility: 10 mile(s):0
Sky conditions: clear
Temperature: 56.1 F (13.4 C)
Dew Point: 53.8 F (12.1 C)
Relative Humidity: 91%
Pressure (altimeter): 29.97 in. Hg (1014 hPa)
Pressure tendency: 0.00 inches (0.1 hPa) lower than three hours ago
ob: KGUS 250556Z AUTO 00000KT 10SM CLR 13/12 A2997 RMK AO2 SLP149 T01340121 10206 20122 58001
cycle: 6

Station Type Date Time Source
KGUS TAF 2020/09/24 21:09 UTC NOAA

TAF KGUS 242100Z 2421/2603 VRB06KT 9999 FEW025 QNH2992INS TX27/2521Z TN11/2511Z LAST NO
AMDS AFT 2503 NEXT 2513

Example: see airport list